Riga, Latvia
Current Conditions -  °F | °C
As of 7:20 PM on Thursday 27 Nov 2014 (Local Time) from EVRA Reporting Station
Overcast Overcast  
Wind Chill: 18°   Ceiling: 1200
Heat Index: 27°   Visibility: 6mi
Dew Point: 25°   Wind: 8mph
Humidity: 93%   Direction: 110°ESE
Pressure: 30.36"   Gusts: NA
Location:  56.97°N, 24.13°E
Report Text: EVRA 271620Z 11007KT 9999 OVC012 M03/M04 Q1028 R18/190095 NOSIG
Loading
Personal Weather Stations






























Interactive Weather Map New forecast layout! Learn more

10-Day Weather Forecast

Advertisements
Track Severe Weather on mobile